Time;durP1;ratioP1;P1;durP2;ratioP2;P2;SDS_P1;SDS_P2;PMS_P1;PMS_P2;Temp;Humidity;BMP_temperature;BMP_pressure;BME280_temperature;BME280_humidity;BME280_pressure;Samples;Min_cycle;Max_cycle;Signal;HPM_P1;HPM_P2
2024/04/25 00:01:10;;;;;;;;;;;21.70;58.40;;;;;;5427765;26;19929;-44
2024/04/25 00:03:36;;;;;;;;;;;21.70;58.40;;;;;;5422511;26;19936;-39
2024/04/25 00:06:02;;;;;;;;;;;21.70;58.40;;;;;;5427511;26;19929;-39
2024/04/25 00:08:28;;;;;;;;;;;21.70;58.40;;;;;;5428506;26;19979;-39
2024/04/25 00:10:55;;;;;;;;;;;21.70;58.40;;;;;;5427355;26;20004;-40
2024/04/25 00:13:26;;;;;;;;;;;21.70;58.50;;;;;;5423278;26;19983;-42
2024/04/25 00:15:55;;;;;;;;;;;21.70;58.50;;;;;;5427113;26;19975;-39
2024/04/25 00:18:22;;;;;;;;;;;21.70;58.40;;;;;;5427854;26;19933;-39
2024/04/25 00:20:47;;;;;;;;;;;21.70;58.40;;;;;;5393852;26;19933;-40
2024/04/25 00:23:13;;;;;;;;;;;21.70;58.40;;;;;;5428783;26;19974;-39
2024/04/25 00:25:39;;;;;;;;;;;21.70;58.40;;;;;;5428432;26;19929;-41
2024/04/25 00:28:05;;;;;;;;;;;21.70;58.40;;;;;;5428545;26;20797;-41
2024/04/25 00:30:31;;;;;;;;;;;21.70;58.30;;;;;;5427887;26;19975;-40
2024/04/25 00:32:58;;;;;;;;;;;21.70;58.30;;;;;;5426932;26;19944;-41
2024/04/25 00:35:24;;;;;;;;;;;21.70;58.30;;;;;;5426762;26;19948;-40
2024/04/25 00:37:50;;;;;;;;;;;21.70;58.20;;;;;;5426831;26;19947;-39
2024/04/25 00:40:16;;;;;;;;;;;21.60;58.10;;;;;;5420600;26;19940;-41
2024/04/25 00:42:42;;;;;;;;;;;21.60;58.10;;;;;;5427012;26;19953;-43
2024/04/25 00:45:08;;;;;;;;;;;21.60;58.10;;;;;;5424972;26;20316;-41
2024/04/25 00:47:34;;;;;;;;;;;21.60;58.10;;;;;;5390049;26;19935;-41
2024/04/25 00:50:00;;;;;;;;;;;21.60;58.10;;;;;;5426956;26;19940;-41
2024/04/25 00:52:26;;;;;;;;;;;21.60;58.10;;;;;;5389795;26;19937;-41
2024/04/25 00:54:52;;;;;;;;;;;21.60;58.10;;;;;;5424734;26;19929;-41
2024/04/25 00:57:17;;;;;;;;;;;21.60;58.20;;;;;;5425973;26;19975;-39
2024/04/25 00:59:44;;;;;;;;;;;21.60;58.10;;;;;;5395054;26;19968;-40
2024/04/25 01:02:10;;;;;;;;;;;21.60;58.10;;;;;;5393094;26;19975;-40
2024/04/25 01:04:36;;;;;;;;;;;21.60;58.10;;;;;;5371760;26;19940;-40
2024/04/25 01:07:02;;;;;;;;;;;21.60;58.10;;;;;;5426790;26;19929;-39
2024/04/25 01:09:28;;;;;;;;;;;21.50;58.20;;;;;;5426861;26;19975;-42
2024/04/25 01:11:54;;;;;;;;;;;21.50;58.20;;;;;;5427468;26;19944;-39
2024/04/25 01:14:20;;;;;;;;;;;21.50;58.10;;;;;;5389739;26;19975;-40
2024/04/25 01:16:46;;;;;;;;;;;21.50;58.20;;;;;;5423132;26;19929;-41
2024/04/25 01:19:14;;;;;;;;;;;21.50;58.20;;;;;;5426301;26;19936;-41
2024/04/25 01:21:40;;;;;;;;;;;21.50;58.20;;;;;;5425447;26;19929;-41
2024/04/25 01:24:05;;;;;;;;;;;21.50;58.20;;;;;;5426364;26;20341;-40
2024/04/25 01:26:32;;;;;;;;;;;21.50;58.20;;;;;;5425899;26;19929;-39
2024/04/25 01:28:58;;;;;;;;;;;21.50;58.30;;;;;;5426496;26;20578;-39
2024/04/25 01:31:26;;;;;;;;;;;21.40;58.10;;;;;;5422741;26;19929;-40
2024/04/25 01:33:52;;;;;;;;;;;21.40;58.10;;;;;;5424101;26;19988;-40
2024/04/25 01:36:18;;;;;;;;;;;21.50;58.70;;;;;;5426092;26;19929;-41
2024/04/25 01:38:44;;;;;;;;;;;21.50;58.10;;;;;;5425932;26;19940;-41
2024/04/25 01:41:10;;;;;;;;;;;21.40;58.00;;;;;;5426450;26;20028;-40
2024/04/25 01:43:36;;;;;;;;;;;21.40;58.20;;;;;;5425530;26;19960;-40
2024/04/25 01:46:02;;;;;;;;;;;21.40;58.50;;;;;;5425907;26;19929;-40
2024/04/25 01:48:28;;;;;;;;;;;21.40;58.50;;;;;;5426669;26;19929;-40
2024/04/25 01:50:54;;;;;;;;;;;21.40;58.60;;;;;;5425110;26;19949;-41
2024/04/25 01:53:20;;;;;;;;;;;21.40;58.50;;;;;;5426294;26;19940;-40
2024/04/25 01:55:46;;;;;;;;;;;21.40;58.50;;;;;;5425527;26;19929;-41
2024/04/25 01:58:12;;;;;;;;;;;21.40;58.40;;;;;;5426582;26;20002;-41
2024/04/25 02:00:38;;;;;;;;;;;21.30;58.30;;;;;;5425909;26;20373;-43
2024/04/25 02:03:04;;;;;;;;;;;21.30;58.30;;;;;;5420249;26;19928;-40
2024/04/25 02:05:30;;;;;;;;;;;21.30;58.20;;;;;;5425258;26;19961;-40
2024/04/25 02:07:56;;;;;;;;;;;21.30;58.30;;;;;;5424671;26;19975;-40
2024/04/25 02:10:23;;;;;;;;;;;21.30;58.20;;;;;;5426172;26;19936;-39
2024/04/25 02:12:49;;;;;;;;;;;21.30;58.10;;;;;;5392002;26;19945;-43
2024/04/25 02:15:15;;;;;;;;;;;21.30;58.20;;;;;;5425943;26;19936;-42
2024/04/25 02:17:44;;;;;;;;;;;21.30;58.20;;;;;;5425303;26;19933;-39
2024/04/25 02:25:39;;;;;;;;;;;21.20;58.10;;;;;;5425616;26;19939;-42
2024/04/25 02:28:05;;;;;;;;;;;21.20;58.10;;;;;;5425646;26;20684;-40
2024/04/25 02:30:31;;;;;;;;;;;21.20;58.10;;;;;;5425957;26;19936;-42
2024/04/25 02:32:58;;;;;;;;;;;21.20;58.00;;;;;;5419094;26;19968;-40
2024/04/25 02:35:25;;;;;;;;;;;21.20;57.90;;;;;;5425467;26;19936;-40
2024/04/25 02:37:54;;;;;;;;;;;21.10;57.80;;;;;;5424480;26;19937;-40
2024/04/25 02:40:20;;;;;;;;;;;21.10;57.80;;;;;;5425701;26;19929;-40
2024/04/25 02:42:46;;;;;;;;;;;21.10;57.80;;;;;;5424850;26;19935;-39
2024/04/25 02:45:11;;;;;;;;;;;21.10;57.70;;;;;;5416860;26;19929;-40
2024/04/25 02:47:37;;;;;;;;;;;21.10;57.70;;;;;;5421944;26;19950;-38
2024/04/25 02:50:03;;;;;;;;;;;21.10;57.70;;;;;;5425367;26;19941;-39
2024/04/25 02:52:29;;;;;;;;;;;21.10;57.60;;;;;;5425086;26;19929;-39
2024/04/25 02:54:56;;;;;;;;;;;21.00;57.60;;;;;;5425107;26;19929;-40
2024/04/25 02:57:24;;;;;;;;;;;21.00;57.60;;;;;;5424654;26;19940;-42
2024/04/25 02:59:50;;;;;;;;;;;21.00;57.60;;;;;;5414540;26;19930;-41
2024/04/25 03:02:16;;;;;;;;;;;21.00;57.70;;;;;;5418970;26;19993;-39
2024/04/25 03:04:42;;;;;;;;;;;21.00;57.60;;;;;;5425180;26;19998;-40
2024/04/25 03:07:08;;;;;;;;;;;21.00;57.60;;;;;;5424405;26;19935;-41
2024/04/25 03:09:34;;;;;;;;;;;21.00;57.60;;;;;;5425017;26;19929;-40
2024/04/25 03:12:00;;;;;;;;;;;20.90;57.50;;;;;;5424649;26;19929;-40
2024/04/25 03:14:26;;;;;;;;;;;20.90;57.60;;;;;;5425156;26;19929;-39
2024/04/25 03:16:52;;;;;;;;;;;20.90;57.60;;;;;;5424579;26;20290;-39
2024/04/25 03:19:18;;;;;;;;;;;20.90;57.60;;;;;;5424237;26;20363;-39
2024/04/25 03:21:44;;;;;;;;;;;20.90;57.60;;;;;;5427062;26;19929;-39
2024/04/25 03:24:10;;;;;;;;;;;20.90;57.60;;;;;;5428722;26;19935;-40
2024/04/25 03:26:36;;;;;;;;;;;20.90;57.60;;;;;;5427022;26;20404;-40
2024/04/25 03:29:02;;;;;;;;;;;20.90;57.70;;;;;;5427772;26;19936;-39
2024/04/25 03:31:28;;;;;;;;;;;20.80;57.70;;;;;;5428151;26;19990;-40
2024/04/25 03:33:54;;;;;;;;;;;20.80;57.60;;;;;;5427235;26;19929;-40
2024/04/25 03:36:20;;;;;;;;;;;20.80;57.70;;;;;;5427583;26;20569;-40
2024/04/25 03:38:45;;;;;;;;;;;20.80;57.70;;;;;;5427683;26;19929;-40
2024/04/25 03:41:15;;;;;;;;;;;20.80;57.70;;;;;;5428284;26;19957;-41
2024/04/25 03:43:41;;;;;;;;;;;20.80;57.80;;;;;;5428052;26;19937;-40
2024/04/25 03:46:06;;;;;;;;;;;20.70;57.80;;;;;;5427747;26;19936;-39
2024/04/25 03:48:32;;;;;;;;;;;20.70;57.80;;;;;;5427638;26;19936;-40
2024/04/25 03:50:58;;;;;;;;;;;20.70;57.80;;;;;;5427464;26;19936;-42
2024/04/25 03:53:24;;;;;;;;;;;20.70;57.80;;;;;;5427785;26;19974;-40
2024/04/25 03:55:50;;;;;;;;;;;20.70;57.80;;;;;;5396286;26;19974;-40
2024/04/25 03:58:16;;;;;;;;;;;20.70;57.90;;;;;;5427471;26;19928;-40
2024/04/25 04:00:42;;;;;;;;;;;20.60;57.80;;;;;;5427415;26;19950;-40
2024/04/25 04:03:08;;;;;;;;;;;20.60;57.80;;;;;;5428057;26;19997;-39
2024/04/25 04:05:34;;;;;;;;;;;20.60;57.80;;;;;;5427474;26;19935;-41
2024/04/25 04:08:00;;;;;;;;;;;20.60;57.80;;;;;;5426724;26;19932;-40
2024/04/25 04:10:26;;;;;;;;;;;20.60;57.90;;;;;;5427550;26;19929;-41
2024/04/25 04:12:52;;;;;;;;;;;20.60;57.90;;;;;;5427373;26;19936;-41
2024/04/25 04:15:18;;;;;;;;;;;20.60;57.90;;;;;;5427536;26;19998;-41
2024/04/25 04:17:44;;;;;;;;;;;20.60;57.90;;;;;;5426717;26;19929;-41
2024/04/25 04:20:10;;;;;;;;;;;20.60;57.90;;;;;;5396456;26;19958;-40
2024/04/25 04:22:35;;;;;;;;;;;20.50;57.90;;;;;;5426809;26;19937;-40
2024/04/25 04:25:02;;;;;;;;;;;20.50;57.90;;;;;;5427542;26;19929;-40
2024/04/25 04:27:28;;;;;;;;;;;20.50;58.00;;;;;;5427219;26;19956;-41
2024/04/25 04:29:54;;;;;;;;;;;20.50;58.00;;;;;;5426954;26;19936;-39
2024/04/25 04:32:20;;;;;;;;;;;20.50;58.00;;;;;;5427401;26;19929;-40
2024/04/25 04:34:46;;;;;;;;;;;20.50;58.00;;;;;;5427391;26;19929;-40
2024/04/25 04:37:11;;;;;;;;;;;20.40;58.00;;;;;;5427086;26;20476;-40
2024/04/25 04:39:37;;;;;;;;;;;20.40;57.90;;;;;;5427223;26;19929;-41
2024/04/25 04:42:03;;;;;;;;;;;20.40;58.00;;;;;;5426400;26;19975;-43
2024/04/25 04:44:29;;;;;;;;;;;20.40;58.00;;;;;;5427252;26;19936;-41
2024/04/25 04:46:55;;;;;;;;;;;20.40;58.60;;;;;;5426767;26;20510;-42
2024/04/25 04:49:21;;;;;;;;;;;20.40;58.10;;;;;;5427070;26;19940;-40
2024/04/25 04:51:47;;;;;;;;;;;20.30;58.10;;;;;;5426527;26;19928;-40
2024/04/25 04:54:13;;;;;;;;;;;20.30;58.00;;;;;;5419631;26;19929;-42
2024/04/25 04:56:39;;;;;;;;;;;20.30;58.10;;;;;;5426129;26;19928;-41
2024/04/25 04:59:05;;;;;;;;;;;20.30;58.10;;;;;;5416145;26;19929;-40
2024/04/25 05:01:31;;;;;;;;;;;20.30;58.10;;;;;;5421804;26;20263;-40
2024/04/25 05:03:56;;;;;;;;;;;20.20;58.10;;;;;;5425900;26;19976;-43
2024/04/25 05:06:22;;;;;;;;;;;20.20;58.10;;;;;;5426857;26;19932;-43
2024/04/25 05:08:48;;;;;;;;;;;20.20;58.10;;;;;;5425654;26;19929;-41
2024/04/25 05:11:14;;;;;;;;;;;20.20;58.20;;;;;;5426819;26;19935;-41
2024/04/25 05:13:40;;;;;;;;;;;20.20;58.20;;;;;;5426820;26;19940;-41
2024/04/25 05:16:06;;;;;;;;;;;20.20;58.20;;;;;;5426897;26;19936;-40
2024/04/25 05:18:32;;;;;;;;;;;20.20;58.30;;;;;;5427298;26;19936;-41
2024/04/25 05:20:58;;;;;;;;;;;20.20;58.20;;;;;;5417277;26;19957;-40
2024/04/25 05:23:24;;;;;;;;;;;20.10;58.30;;;;;;5426832;26;19937;-40
2024/04/25 05:25:50;;;;;;;;;;;20.10;58.30;;;;;;5425984;26;19936;-40
2024/04/25 05:28:16;;;;;;;;;;;20.10;58.30;;;;;;5427689;26;19949;-41
2024/04/25 05:30:43;;;;;;;;;;;20.10;58.30;;;;;;5425594;26;20369;-43
2024/04/25 05:33:09;;;;;;;;;;;20.10;58.30;;;;;;5426248;26;19935;-41
2024/04/25 05:35:35;;;;;;;;;;;20.10;58.40;;;;;;5426523;26;19929;-41
2024/04/25 05:38:01;;;;;;;;;;;20.00;58.30;;;;;;5425558;26;19937;-41
2024/04/25 05:40:27;;;;;;;;;;;20.00;58.30;;;;;;5426293;26;20026;-40
2024/04/25 05:42:52;;;;;;;;;;;20.00;58.30;;;;;;5425005;26;19935;-42
2024/04/25 05:45:18;;;;;;;;;;;20.00;58.40;;;;;;5426743;26;19929;-41
2024/04/25 05:47:44;;;;;;;;;;;20.00;58.40;;;;;;5394541;26;19936;-40
2024/04/25 05:50:10;;;;;;;;;;;20.00;58.40;;;;;;5426058;26;20028;-40
2024/04/25 05:52:36;;;;;;;;;;;20.00;58.50;;;;;;5412720;26;19937;-41
2024/04/25 05:55:02;;;;;;;;;;;19.90;58.40;;;;;;5402827;26;19929;-40
2024/04/25 05:57:29;;;;;;;;;;;19.90;58.50;;;;;;5399922;26;19936;-40
2024/04/25 05:59:54;;;;;;;;;;;19.90;58.50;;;;;;5398192;26;19949;-40
2024/04/25 06:02:24;;;;;;;;;;;19.90;58.50;;;;;;5403468;26;19936;-40
2024/04/25 06:04:51;;;;;;;;;;;19.90;58.60;;;;;;5401469;26;19937;-41
2024/04/25 06:07:17;;;;;;;;;;;19.90;58.60;;;;;;5400195;26;19937;-40
2024/04/25 06:09:43;;;;;;;;;;;19.80;58.60;;;;;;5394242;26;19929;-43
2024/04/25 06:12:09;;;;;;;;;;;19.90;58.60;;;;;;5400921;26;19937;-42
2024/04/25 06:14:35;;;;;;;;;;;19.80;58.60;;;;;;5403459;26;19936;-41
2024/04/25 06:17:03;;;;;;;;;;;19.80;58.60;;;;;;5399006;26;19929;-40
2024/04/25 06:19:29;;;;;;;;;;;19.80;58.70;;;;;;5402677;26;20740;-40
2024/04/25 06:21:55;;;;;;;;;;;19.80;58.70;;;;;;5412550;26;19948;-40
2024/04/25 06:24:21;;;;;;;;;;;19.80;58.70;;;;;;5394336;26;19940;-41
2024/04/25 06:26:47;;;;;;;;;;;19.70;58.70;;;;;;5425199;26;19980;-40
2024/04/25 06:29:13;;;;;;;;;;;19.70;58.70;;;;;;5425563;26;19929;-40
2024/04/25 06:31:39;;;;;;;;;;;19.70;58.70;;;;;;5419392;26;19976;-40
2024/04/25 06:34:09;;;;;;;;;;;19.70;58.80;;;;;;5425743;26;19929;-41
2024/04/25 06:36:35;;;;;;;;;;;19.70;58.80;;;;;;5425397;26;20289;-40
2024/04/25 06:39:03;;;;;;;;;;;19.70;58.80;;;;;;5425113;26;20243;-43
2024/04/25 06:41:29;;;;;;;;;;;19.70;58.90;;;;;;5425464;26;19937;-43
2024/04/25 06:43:56;;;;;;;;;;;19.60;58.80;;;;;;5425341;26;19944;-40
2024/04/25 06:46:21;;;;;;;;;;;19.60;58.80;;;;;;5425712;26;19937;-42
2024/04/25 06:48:47;;;;;;;;;;;19.60;58.90;;;;;;5425195;26;19936;-40
2024/04/25 06:51:18;;;;;;;;;;;19.60;58.90;;;;;;5425140;26;19929;-41
2024/04/25 06:53:44;;;;;;;;;;;19.60;58.90;;;;;;5424889;26;19936;-40
2024/04/25 06:56:10;;;;;;;;;;;19.60;59.00;;;;;;5421370;26;19982;-42
2024/04/25 06:58:36;;;;;;;;;;;19.50;58.90;;;;;;5422931;26;19941;-41
2024/04/25 07:01:02;;;;;;;;;;;19.60;59.00;;;;;;5423633;26;19929;-42
2024/04/25 07:03:28;;;;;;;;;;;19.50;58.90;;;;;;5425034;26;19929;-40
2024/04/25 07:05:53;;;;;;;;;;;19.50;58.90;;;;;;5424201;26;19989;-40
2024/04/25 07:08:21;;;;;;;;;;;19.50;59.00;;;;;;5424784;26;19936;-40
2024/04/25 07:10:47;;;;;;;;;;;19.50;59.00;;;;;;5424868;26;20369;-40
2024/04/25 07:13:13;;;;;;;;;;;19.50;59.00;;;;;;5425407;26;19935;-42
2024/04/25 07:15:39;;;;;;;;;;;19.50;59.10;;;;;;5425469;26;19932;-40
2024/04/25 07:18:06;;;;;;;;;;;19.50;59.10;;;;;;5425268;26;19929;-40
2024/04/25 07:20:33;;;;;;;;;;;19.40;59.10;;;;;;5424548;26;19979;-40
2024/04/25 07:22:59;;;;;;;;;;;19.40;59.10;;;;;;5424785;26;19953;-41
2024/04/25 07:25:28;;;;;;;;;;;19.40;59.10;;;;;;5424686;26;19936;-40
2024/04/25 07:27:56;;;;;;;;;;;19.40;59.20;;;;;;5424573;26;19929;-41
2024/04/25 07:30:22;;;;;;;;;;;19.40;59.20;;;;;;5424266;26;19936;-40
2024/04/25 07:32:48;;;;;;;;;;;19.40;59.20;;;;;;5417795;26;19929;-40
2024/04/25 07:35:14;;;;;;;;;;;19.40;59.20;;;;;;5424803;26;19929;-41
2024/04/25 07:37:40;;;;;;;;;;;19.40;59.20;;;;;;5424198;26;20433;-40
2024/04/25 07:40:07;;;;;;;;;;;19.30;59.20;;;;;;5424419;26;19936;-40
2024/04/25 07:42:33;;;;;;;;;;;19.30;59.20;;;;;;5425435;26;19933;-40
2024/04/25 07:45:01;;;;;;;;;;;19.30;59.20;;;;;;5424455;26;19935;-42
2024/04/25 07:47:30;;;;;;;;;;;19.30;59.30;;;;;;5424894;26;19949;-40
2024/04/25 07:49:57;;;;;;;;;;;19.30;59.30;;;;;;5423792;26;19944;-41
2024/04/25 07:52:23;;;;;;;;;;;19.20;59.30;;;;;;5424633;26;19929;-40
2024/04/25 07:54:49;;;;;;;;;;;19.20;59.30;;;;;;5424675;26;19949;-42
2024/04/25 07:57:15;;;;;;;;;;;19.20;59.30;;;;;;5424322;26;19929;-40
2024/04/25 07:59:41;;;;;;;;;;;19.20;59.30;;;;;;5393403;26;19940;-39
2024/04/25 08:02:06;;;;;;;;;;;19.20;59.30;;;;;;5424730;26;19933;-40
2024/04/25 08:04:33;;;;;;;;;;;19.20;59.40;;;;;;5423396;26;19976;-39
2024/04/25 08:06:59;;;;;;;;;;;19.20;59.40;;;;;;5425986;26;19929;-39
2024/04/25 08:09:25;;;;;;;;;;;19.10;59.40;;;;;;5427801;26;20275;-39
2024/04/25 08:11:50;;;;;;;;;;;19.20;59.50;;;;;;5427479;26;19940;-39
2024/04/25 08:14:18;;;;;;;;;;;19.20;59.50;;;;;;5428621;26;19929;-42
2024/04/25 08:16:46;;;;;;;;;;;19.10;59.40;;;;;;5427637;26;19928;-40
2024/04/25 08:19:12;;;;;;;;;;;19.10;59.50;;;;;;5427215;26;19936;-39
2024/04/25 08:21:38;;;;;;;;;;;19.10;59.50;;;;;;5427481;26;19998;-40
2024/04/25 08:24:05;;;;;;;;;;;19.10;60.10;;;;;;5414720;26;19929;-39
2024/04/25 08:26:31;;;;;;;;;;;19.10;59.50;;;;;;5427217;26;19936;-40
2024/04/25 08:28:57;;;;;;;;;;;19.10;59.50;;;;;;5427825;26;19929;-40
2024/04/25 08:31:23;;;;;;;;;;;19.00;59.50;;;;;;5424363;26;19929;-39
2024/04/25 08:33:49;;;;;;;;;;;19.00;59.50;;;;;;5424603;26;19929;-39
2024/04/25 08:36:15;;;;;;;;;;;19.00;59.50;;;;;;5427658;26;19929;-39
2024/04/25 08:38:41;;;;;;;;;;;19.00;59.60;;;;;;5426672;26;20315;-39
2024/04/25 08:41:07;;;;;;;;;;;19.00;59.60;;;;;;5427660;26;19929;-42
2024/04/25 08:43:34;;;;;;;;;;;19.00;59.60;;;;;;5428788;26;19929;-40
2024/04/25 08:45:59;;;;;;;;;;;19.00;59.70;;;;;;5426897;26;19929;-39
2024/04/25 08:48:25;;;;;;;;;;;19.00;59.70;;;;;;5427294;26;20006;-39
2024/04/25 08:50:51;;;;;;;;;;;18.90;59.70;;;;;;5382025;26;19930;-39
2024/04/25 08:53:20;;;;;;;;;;;18.90;59.70;;;;;;5427791;26;19929;-39
2024/04/25 08:55:46;;;;;;;;;;;18.90;59.70;;;;;;5427076;26;19941;-41
2024/04/25 08:58:12;;;;;;;;;;;18.90;59.70;;;;;;5390198;26;19937;-39
2024/04/25 09:00:38;;;;;;;;;;;18.90;59.70;;;;;;5421323;26;19945;-39
2024/04/25 09:03:04;;;;;;;;;;;18.90;59.80;;;;;;5421232;26;19928;-39
2024/04/25 09:05:31;;;;;;;;;;;18.80;59.70;;;;;;5395814;26;19953;-39
2024/04/25 09:07:57;;;;;;;;;;;18.90;59.80;;;;;;5394722;26;19940;-41
2024/04/25 09:10:22;;;;;;;;;;;18.80;59.80;;;;;;5426694;26;19929;-40
2024/04/25 09:12:48;;;;;;;;;;;18.80;59.80;;;;;;5426739;26;19929;-39
2024/04/25 09:15:14;;;;;;;;;;;18.80;59.90;;;;;;5426987;26;19929;-41
2024/04/25 09:17:40;;;;;;;;;;;18.80;59.90;;;;;;5424880;26;19929;-39
2024/04/25 09:20:07;;;;;;;;;;;18.80;59.90;;;;;;5426845;26;19972;-39
2024/04/25 09:22:33;;;;;;;;;;;18.70;59.90;;;;;;5426252;26;20450;-39
2024/04/25 09:24:59;;;;;;;;;;;18.70;59.90;;;;;;5426774;26;19936;-40
2024/04/25 09:27:25;;;;;;;;;;;18.70;59.90;;;;;;5426196;26;19929;-39
2024/04/25 09:29:54;;;;;;;;;;;18.70;60.00;;;;;;5426806;26;19936;-40
2024/04/25 09:32:20;;;;;;;;;;;18.70;60.00;;;;;;5420837;26;19937;-42
2024/04/25 09:34:46;;;;;;;;;;;18.70;60.00;;;;;;5426715;26;19929;-39
2024/04/25 09:37:12;;;;;;;;;;;18.70;60.00;;;;;;5426618;26;19929;-39
2024/04/25 09:39:38;;;;;;;;;;;18.70;60.10;;;;;;5426166;26;19929;-39
2024/04/25 09:42:04;;;;;;;;;;;18.70;60.00;;;;;;5425124;26;19936;-39
2024/04/25 09:44:33;;;;;;;;;;;18.60;60.10;;;;;;5427089;26;19929;-39
2024/04/25 09:47:02;;;;;;;;;;;18.60;60.10;;;;;;5394971;26;19967;-40
2024/04/25 09:49:36;;;;;;;;;;;18.60;60.10;;;;;;5426963;26;19929;-38
2024/04/25 09:52:08;;;;;;;;;;;18.60;60.10;;;;;;5426361;26;19979;-39
2024/04/25 09:54:45;;;;;;;;;;;18.60;60.20;;;;;;5426437;26;20006;-40
2024/04/25 09:57:13;;;;;;;;;;;18.60;60.20;;;;;;5414007;26;19953;-39
2024/04/25 09:59:54;;;;;;;;;;;18.60;60.20;;;;;;5425918;26;19929;-39
2024/04/25 10:02:20;;;;;;;;;;;18.60;60.20;;;;;;5416009;26;19933;-39
2024/04/25 10:04:46;;;;;;;;;;;18.60;60.30;;;;;;5426212;26;19929;-40
2024/04/25 10:07:16;;;;;;;;;;;18.50;60.20;;;;;;5426441;26;19928;-40
2024/04/25 10:09:42;;;;;;;;;;;18.50;60.20;;;;;;5425521;26;19929;-40
2024/04/25 10:12:08;;;;;;;;;;;18.50;60.20;;;;;;5380980;26;19937;-40
2024/04/25 10:14:34;;;;;;;;;;;18.50;60.30;;;;;;5426660;26;19935;-40
2024/04/25 10:17:00;;;;;;;;;;;18.50;60.30;;;;;;5425913;26;19928;-38
2024/04/25 10:19:33;;;;;;;;;;;18.50;60.40;;;;;;5426727;26;19940;-39
2024/04/25 10:21:59;;;;;;;;;;;18.50;60.40;;;;;;5393675;26;19929;-39
2024/04/25 10:24:25;;;;;;;;;;;18.50;60.40;;;;;;5426359;26;19928;-39
2024/04/25 10:26:51;;;;;;;;;;;18.40;60.50;;;;;;5424639;26;19937;-40
2024/04/25 10:29:16;;;;;;;;;;;18.40;60.40;;;;;;5425290;26;19936;-42
2024/04/25 10:31:42;;;;;;;;;;;18.40;60.40;;;;;;5425075;26;19936;-39
2024/04/25 10:34:09;;;;;;;;;;;18.40;60.40;;;;;;5413131;26;20905;-40
2024/04/25 10:36:35;;;;;;;;;;;18.40;60.50;;;;;;5425659;26;20002;-40
2024/04/25 10:39:01;;;;;;;;;;;18.40;60.50;;;;;;5425480;26;20697;-39
2024/04/25 10:41:35;;;;;;;;;;;18.40;60.50;;;;;;5425022;26;19936;-39
2024/04/25 10:44:04;;;;;;;;;;;18.30;60.50;;;;;;5425753;26;19933;-39
2024/04/25 10:46:30;;;;;;;;;;;18.30;60.50;;;;;;5394480;26;19933;-39
2024/04/25 10:48:56;;;;;;;;;;;18.30;60.50;;;;;;5393787;26;19983;-39
2024/04/25 10:51:22;;;;;;;;;;;18.30;60.60;;;;;;5424900;26;19929;-40
2024/04/25 10:53:50;;;;;;;;;;;18.30;60.50;;;;;;5392402;26;19945;-39
2024/04/25 10:56:16;;;;;;;;;;;18.30;60.60;;;;;;5425175;26;19928;-39
2024/04/25 10:58:50;;;;;;;;;;;18.30;60.60;;;;;;5423724;26;19940;-39
2024/04/25 11:01:25;;;;;;;;;;;18.20;60.60;;;;;;5387102;26;19930;-40
2024/04/25 11:03:52;;;;;;;;;;;18.20;60.60;;;;;;5425040;26;19929;-41
2024/04/25 11:06:18;;;;;;;;;;;18.20;60.70;;;;;;5421286;26;19948;-39
2024/04/25 11:08:44;;;;;;;;;;;18.20;60.70;;;;;;5415172;26;19929;-40
2024/04/25 11:11:09;;;;;;;;;;;18.20;60.70;;;;;;5425285;26;19933;-40
2024/04/25 11:13:35;;;;;;;;;;;18.20;60.80;;;;;;5424850;26;19938;-41
2024/04/25 11:16:01;;;;;;;;;;;18.20;60.80;;;;;;5391213;26;20294;-40
2024/04/25 11:18:27;;;;;;;;;;;18.20;60.80;;;;;;5425280;26;19953;-41
2024/04/25 11:20:53;;;;;;;;;;;18.20;60.80;;;;;;5423892;26;19936;-42
2024/04/25 11:23:19;;;;;;;;;;;18.10;60.80;;;;;;5423678;26;19933;-40
2024/04/25 11:25:46;;;;;;;;;;;18.10;60.90;;;;;;5424545;26;19999;-40
2024/04/25 11:28:12;;;;;;;;;;;18.10;60.90;;;;;;5424930;26;20001;-40
2024/04/25 11:30:38;;;;;;;;;;;18.10;60.90;;;;;;5424363;26;20381;-43
2024/04/25 11:33:04;;;;;;;;;;;18.10;61.00;;;;;;5423966;26;19929;-42
2024/04/25 11:35:29;;;;;;;;;;;18.10;60.90;;;;;;5424920;26;19941;-40
2024/04/25 11:37:56;;;;;;;;;;;18.10;61.00;;;;;;5424096;26;19937;-41
2024/04/25 11:40:31;;;;;;;;;;;18.10;61.00;;;;;;5424980;26;20362;-41
2024/04/25 11:42:57;;;;;;;;;;;18.00;61.00;;;;;;5427073;26;19941;-40
2024/04/25 11:45:23;;;;;;;;;;;18.00;61.00;;;;;;5428295;26;19936;-40
2024/04/25 11:47:49;;;;;;;;;;;18.00;61.10;;;;;;5427743;26;19967;-40
2024/04/25 11:50:15;;;;;;;;;;;18.00;61.10;;;;;;5428231;26;20425;-42
2024/04/25 11:52:41;;;;;;;;;;;18.00;61.10;;;;;;5427173;26;19929;-45
2024/04/25 11:55:06;;;;;;;;;;;18.00;61.10;;;;;;5427637;26;20006;-40
2024/04/25 11:57:32;;;;;;;;;;;17.90;61.10;;;;;;5427472;26;19929;-40
2024/04/25 11:59:58;;;;;;;;;;;17.90;61.10;;;;;;5427387;26;19929;-40
2024/04/25 12:02:24;;;;;;;;;;;17.90;61.10;;;;;;5421049;26;19929;-40
2024/04/25 12:04:50;;;;;;;;;;;17.90;61.10;;;;;;5429251;26;19936;-42
2024/04/25 12:07:16;;;;;;;;;;;17.90;61.10;;;;;;5427952;26;19928;-40
2024/04/25 12:09:42;;;;;;;;;;;17.90;61.20;;;;;;5427870;26;19929;-39
2024/04/25 12:12:08;;;;;;;;;;;17.90;61.20;;;;;;5427726;26;20026;-41
2024/04/25 12:14:34;;;;;;;;;;;17.90;61.20;;;;;;5429230;26;19929;-40
2024/04/25 12:16:59;;;;;;;;;;;17.90;61.30;;;;;;5428026;26;19933;-40
2024/04/25 12:19:25;;;;;;;;;;;17.80;61.20;;;;;;5427790;26;19936;-40
2024/04/25 12:21:51;;;;;;;;;;;17.80;61.20;;;;;;5426777;26;19936;-40
2024/04/25 12:24:17;;;;;;;;;;;17.80;61.20;;;;;;5427441;26;19975;-41
2024/04/25 12:26:44;;;;;;;;;;;17.80;61.10;;;;;;5427054;26;19937;-40
2024/04/25 12:29:10;;;;;;;;;;;17.80;61.10;;;;;;5427676;26;19933;-41
2024/04/25 12:31:36;;;;;;;;;;;17.80;61.20;;;;;;5420897;26;19937;-39
2024/04/25 12:34:02;;;;;;;;;;;17.80;61.30;;;;;;5426993;26;19941;-40
2024/04/25 12:36:28;;;;;;;;;;;17.80;61.30;;;;;;5427321;26;19977;-40
2024/04/25 12:38:54;;;;;;;;;;;17.80;61.30;;;;;;5426433;26;19929;-40
2024/04/25 12:41:20;;;;;;;;;;;17.80;61.30;;;;;;5427463;26;19929;-40
2024/04/25 12:43:48;;;;;;;;;;;17.80;61.30;;;;;;5426964;26;19975;-40
2024/04/25 12:46:14;;;;;;;;;;;17.80;61.20;;;;;;5427743;26;20350;-40
2024/04/25 12:48:40;;;;;;;;;;;17.80;61.30;;;;;;5426905;26;19940;-40
2024/04/25 12:51:06;;;;;;;;;;;17.80;61.30;;;;;;5427163;26;19929;-41
2024/04/25 12:53:32;;;;;;;;;;;17.80;61.30;;;;;;5427137;26;19935;-40
2024/04/25 12:55:59;;;;;;;;;;;17.70;61.30;;;;;;5426911;26;19936;-40
2024/04/25 12:58:26;;;;;;;;;;;17.80;61.30;;;;;;5424452;26;19941;-42
2024/04/25 13:00:52;;;;;;;;;;;17.80;61.30;;;;;;5426612;26;19953;-40
2024/04/25 13:03:18;;;;;;;;;;;17.80;61.20;;;;;;5420951;26;19929;-38
2024/04/25 13:05:46;;;;;;;;;;;17.80;61.20;;;;;;5421797;26;19947;-37
2024/04/25 13:08:12;;;;;;;;;;;17.80;61.10;;;;;;5395849;26;19933;-38
2024/04/25 13:10:38;;;;;;;;;;;17.80;61.10;;;;;;5427548;26;19949;-38
2024/04/25 13:13:04;;;;;;;;;;;17.80;61.10;;;;;;5427073;26;19940;-38
2024/04/25 13:15:30;;;;;;;;;;;17.80;61.10;;;;;;5425796;26;19929;-38
2024/04/25 13:17:56;;;;;;;;;;;17.80;61.10;;;;;;5426125;26;19937;-38
2024/04/25 13:20:22;;;;;;;;;;;17.80;61.10;;;;;;5421114;26;19933;-38
2024/04/25 13:22:48;;;;;;;;;;;17.80;61.10;;;;;;5425538;26;19928;-39
2024/04/25 13:25:14;;;;;;;;;;;17.80;61.10;;;;;;5426901;26;19941;-39
2024/04/25 13:27:40;;;;;;;;;;;17.80;61.00;;;;;;5426340;26;19929;-38
2024/04/25 13:30:07;;;;;;;;;;;17.80;61.10;;;;;;5426773;26;19940;-38
2024/04/25 13:32:33;;;;;;;;;;;17.80;61.00;;;;;;5419881;26;20307;-39
2024/04/25 13:34:59;;;;;;;;;;;17.80;61.00;;;;;;5426726;26;19936;-39
2024/04/25 13:37:25;;;;;;;;;;;17.80;61.00;;;;;;5426422;26;20012;-39
2024/04/25 13:39:54;;;;;;;;;;;17.80;61.00;;;;;;5426049;26;19940;-41
2024/04/25 13:42:20;;;;;;;;;;;17.80;60.90;;;;;;5426835;26;19929;-40
2024/04/25 13:44:46;;;;;;;;;;;17.80;60.90;;;;;;5425711;26;19953;-39
2024/04/25 13:47:12;;;;;;;;;;;17.90;60.90;;;;;;5426598;26;19929;-38
2024/04/25 13:49:38;;;;;;;;;;;17.90;60.90;;;;;;5419635;26;19936;-38
2024/04/25 13:52:04;;;;;;;;;;;17.90;60.90;;;;;;5426391;26;19933;-39
2024/04/25 13:54:30;;;;;;;;;;;17.90;61.40;;;;;;5426691;26;19936;-39
2024/04/25 13:56:56;;;;;;;;;;;17.90;60.80;;;;;;5425939;26;19944;-39
2024/04/25 13:59:22;;;;;;;;;;;17.90;60.80;;;;;;5425939;26;19929;-39
2024/04/25 14:01:48;;;;;;;;;;;17.90;60.80;;;;;;5419480;26;19954;-39
2024/04/25 14:04:14;;;;;;;;;;;17.90;60.80;;;;;;5425855;26;19929;-39
2024/04/25 14:06:42;;;;;;;;;;;18.00;60.80;;;;;;5425457;26;19929;-39
2024/04/25 14:09:09;;;;;;;;;;;18.00;60.80;;;;;;5426229;26;19929;-39
2024/04/25 14:11:35;;;;;;;;;;;18.00;60.80;;;;;;5426130;26;19974;-39
2024/04/25 14:14:04;;;;;;;;;;;18.00;60.80;;;;;;5425496;26;19933;-39
2024/04/25 14:16:30;;;;;;;;;;;18.00;60.90;;;;;;5426135;26;19949;-39